sensor_id;sensor_type;location;lat;lon;timestamp;P1;durP1;ratioP1;P2;durP2;ratioP2
51020;SDS011;38907;45.562;8.856;2023-06-22T00:04:58;14.95;;;7.65;;
51020;SDS011;38907;45.562;8.856;2023-06-22T00:10:00;12.45;;;7.60;;
51020;SDS011;38907;45.562;8.856;2023-06-22T00:15:04;17.48;;;8.50;;
51020;SDS011;38907;45.562;8.856;2023-06-22T00:20:07;17.42;;;8.98;;
51020;SDS011;38907;45.562;8.856;2023-06-22T00:25:11;14.63;;;8.98;;
51020;SDS011;38907;45.562;8.856;2023-06-22T00:30:14;18.83;;;9.23;;
51020;SDS011;38907;45.562;8.856;2023-06-22T00:35:17;17.52;;;8.80;;
51020;SDS011;38907;45.562;8.856;2023-06-22T00:40:19;11.10;;;8.77;;
51020;SDS011;38907;45.562;8.856;2023-06-22T00:45:23;22.40;;;10.73;;
51020;SDS011;38907;45.562;8.856;2023-06-22T00:50:26;15.43;;;10.38;;
51020;SDS011;38907;45.562;8.856;2023-06-22T00:55:33;15.57;;;9.52;;
51020;SDS011;38907;45.562;8.856;2023-06-22T01:00:40;15.57;;;9.02;;
51020;SDS011;38907;45.562;8.856;2023-06-22T01:05:42;19.67;;;9.38;;
51020;SDS011;38907;45.562;8.856;2023-06-22T01:10:47;14.57;;;8.95;;
51020;SDS011;38907;45.562;8.856;2023-06-22T01:15:55;12.07;;;8.93;;
51020;SDS011;38907;45.562;8.856;2023-06-22T01:21:01;19.27;;;11.50;;
51020;SDS011;38907;45.562;8.856;2023-06-22T01:26:12;25.73;;;14.90;;
51020;SDS011;38907;45.562;8.856;2023-06-22T01:31:22;20.00;;;9.47;;
51020;SDS011;38907;45.562;8.856;2023-06-22T01:36:26;15.75;;;9.43;;
51020;SDS011;38907;45.562;8.856;2023-06-22T01:41:28;15.50;;;9.73;;
51020;SDS011;38907;45.562;8.856;2023-06-22T01:46:33;12.48;;;8.95;;
51020;SDS011;38907;45.562;8.856;2023-06-22T01:51:36;12.75;;;9.27;;
51020;SDS011;38907;45.562;8.856;2023-06-22T01:56:38;12.40;;;8.77;;
51020;SDS011;38907;45.562;8.856;2023-06-22T02:06:44;14.10;;;10.27;;
51020;SDS011;38907;45.562;8.856;2023-06-22T02:11:50;15.40;;;9.25;;
51020;SDS011;38907;45.562;8.856;2023-06-22T02:16:56;13.85;;;9.10;;
51020;SDS011;38907;45.562;8.856;2023-06-22T02:21:59;14.98;;;9.75;;
51020;SDS011;38907;45.562;8.856;2023-06-22T02:27:01;16.30;;;9.32;;
51020;SDS011;38907;45.562;8.856;2023-06-22T02:32:06;12.52;;;9.23;;
51020;SDS011;38907;45.562;8.856;2023-06-22T02:37:08;18.92;;;9.27;;
51020;SDS011;38907;45.562;8.856;2023-06-22T02:47:14;15.40;;;8.30;;
51020;SDS011;38907;45.562;8.856;2023-06-22T02:52:17;13.50;;;9.48;;
51020;SDS011;38907;45.562;8.856;2023-06-22T02:57:18;18.27;;;8.68;;
51020;SDS011;38907;45.562;8.856;2023-06-22T03:02:22;13.05;;;8.60;;
51020;SDS011;38907;45.562;8.856;2023-06-22T03:07:24;14.30;;;8.07;;
51020;SDS011;38907;45.562;8.856;2023-06-22T03:12:25;13.57;;;8.63;;
51020;SDS011;38907;45.562;8.856;2023-06-22T03:17:29;12.02;;;7.90;;
51020;SDS011;38907;45.562;8.856;2023-06-22T03:22:31;17.20;;;8.73;;
51020;SDS011;38907;45.562;8.856;2023-06-22T03:27:32;17.95;;;9.00;;
51020;SDS011;38907;45.562;8.856;2023-06-22T03:32:36;13.32;;;8.82;;
51020;SDS011;38907;45.562;8.856;2023-06-22T03:37:38;18.13;;;9.73;;
51020;SDS011;38907;45.562;8.856;2023-06-22T03:42:40;17.90;;;9.57;;
51020;SDS011;38907;45.562;8.856;2023-06-22T03:47:43;13.50;;;9.35;;
51020;SDS011;38907;45.562;8.856;2023-06-22T03:52:45;18.60;;;8.50;;
51020;SDS011;38907;45.562;8.856;2023-06-22T03:57:47;14.50;;;9.07;;
51020;SDS011;38907;45.562;8.856;2023-06-22T04:02:50;13.23;;;8.50;;
51020;SDS011;38907;45.562;8.856;2023-06-22T04:07:52;14.88;;;9.18;;
51020;SDS011;38907;45.562;8.856;2023-06-22T04:12:54;15.65;;;7.88;;
51020;SDS011;38907;45.562;8.856;2023-06-22T04:22:59;15.60;;;8.50;;
51020;SDS011;38907;45.562;8.856;2023-06-22T04:28:01;13.55;;;8.38;;
51020;SDS011;38907;45.562;8.856;2023-06-22T04:33:05;17.98;;;9.35;;
51020;SDS011;38907;45.562;8.856;2023-06-22T04:38:07;14.30;;;8.30;;
51020;SDS011;38907;45.562;8.856;2023-06-22T04:43:09;14.60;;;8.40;;
51020;SDS011;38907;45.562;8.856;2023-06-22T04:48:13;18.13;;;8.40;;
51020;SDS011;38907;45.562;8.856;2023-06-22T04:53:16;13.27;;;8.45;;
51020;SDS011;38907;45.562;8.856;2023-06-22T04:58:17;13.00;;;7.90;;
51020;SDS011;38907;45.562;8.856;2023-06-22T05:03:22;10.20;;;8.45;;
51020;SDS011;38907;45.562;8.856;2023-06-22T05:08:26;15.15;;;8.25;;
51020;SDS011;38907;45.562;8.856;2023-06-22T05:13:28;17.90;;;9.18;;
51020;SDS011;38907;45.562;8.856;2023-06-22T05:18:31;14.27;;;8.85;;
51020;SDS011;38907;45.562;8.856;2023-06-22T05:23:35;12.68;;;8.93;;
51020;SDS011;38907;45.562;8.856;2023-06-22T05:28:36;12.77;;;9.07;;
51020;SDS011;38907;45.562;8.856;2023-06-22T05:33:40;21.80;;;8.93;;
51020;SDS011;38907;45.562;8.856;2023-06-22T05:38:42;19.23;;;9.48;;
51020;SDS011;38907;45.562;8.856;2023-06-22T05:43:44;21.52;;;8.30;;
51020;SDS011;38907;45.562;8.856;2023-06-22T05:48:47;15.35;;;8.98;;
51020;SDS011;38907;45.562;8.856;2023-06-22T05:53:49;17.92;;;8.55;;
51020;SDS011;38907;45.562;8.856;2023-06-22T05:58:51;14.85;;;8.30;;
51020;SDS011;38907;45.562;8.856;2023-06-22T06:03:54;15.73;;;7.88;;
51020;SDS011;38907;45.562;8.856;2023-06-22T06:08:56;15.82;;;8.38;;
51020;SDS011;38907;45.562;8.856;2023-06-22T06:13:58;11.43;;;8.70;;
51020;SDS011;38907;45.562;8.856;2023-06-22T06:19:02;15.43;;;9.35;;
51020;SDS011;38907;45.562;8.856;2023-06-22T06:24:04;16.05;;;8.23;;
51020;SDS011;38907;45.562;8.856;2023-06-22T06:29:06;18.45;;;8.48;;
51020;SDS011;38907;45.562;8.856;2023-06-22T06:34:09;13.75;;;8.25;;
51020;SDS011;38907;45.562;8.856;2023-06-22T06:39:11;16.13;;;7.68;;
51020;SDS011;38907;45.562;8.856;2023-06-22T06:44:13;18.92;;;8.55;;
51020;SDS011;38907;45.562;8.856;2023-06-22T06:49:16;13.30;;;7.68;;
51020;SDS011;38907;45.562;8.856;2023-06-22T06:54:18;16.00;;;7.95;;
51020;SDS011;38907;45.562;8.856;2023-06-22T06:59:20;15.05;;;8.05;;
51020;SDS011;38907;45.562;8.856;2023-06-22T07:04:24;14.00;;;7.63;;
51020;SDS011;38907;45.562;8.856;2023-06-22T07:09:25;13.40;;;7.25;;
51020;SDS011;38907;45.562;8.856;2023-06-22T07:14:27;15.35;;;7.57;;
51020;SDS011;38907;45.562;8.856;2023-06-22T07:19:32;16.05;;;7.53;;
51020;SDS011;38907;45.562;8.856;2023-06-22T07:24:34;13.38;;;7.05;;
51020;SDS011;38907;45.562;8.856;2023-06-22T07:29:37;13.85;;;7.38;;
51020;SDS011;38907;45.562;8.856;2023-06-22T07:34:41;17.52;;;7.93;;
51020;SDS011;38907;45.562;8.856;2023-06-22T07:39:43;18.52;;;7.95;;
51020;SDS011;38907;45.562;8.856;2023-06-22T07:49:48;13.40;;;7.25;;
51020;SDS011;38907;45.562;8.856;2023-06-22T07:54:50;15.10;;;7.00;;
51020;SDS011;38907;45.562;8.856;2023-06-22T07:59:52;15.73;;;7.50;;
51020;SDS011;38907;45.562;8.856;2023-06-22T08:14:59;16.17;;;6.75;;
51020;SDS011;38907;45.562;8.856;2023-06-22T08:25:09;19.25;;;7.53;;
51020;SDS011;38907;45.562;8.856;2023-06-22T08:30:11;14.40;;;7.30;;
51020;SDS011;38907;45.562;8.856;2023-06-22T08:35:15;18.40;;;6.60;;
51020;SDS011;38907;45.562;8.856;2023-06-22T08:40:17;14.32;;;6.53;;
51020;SDS011;38907;45.562;8.856;2023-06-22T08:45:20;13.10;;;7.03;;
51020;SDS011;38907;45.562;8.856;2023-06-22T08:50:23;10.20;;;7.15;;
51020;SDS011;38907;45.562;8.856;2023-06-22T08:55:25;21.75;;;8.27;;
51020;SDS011;38907;45.562;8.856;2023-06-22T09:00:27;15.70;;;7.60;;
51020;SDS011;38907;45.562;8.856;2023-06-22T09:05:34;10.52;;;7.65;;
51020;SDS011;38907;45.562;8.856;2023-06-22T09:10:35;13.15;;;7.60;;
51020;SDS011;38907;45.562;8.856;2023-06-22T09:15:37;12.57;;;8.02;;
51020;SDS011;38907;45.562;8.856;2023-06-22T09:20:41;19.27;;;7.82;;
51020;SDS011;38907;45.562;8.856;2023-06-22T09:25:43;16.23;;;7.88;;
51020;SDS011;38907;45.562;8.856;2023-06-22T09:30:46;14.13;;;6.97;;
51020;SDS011;38907;45.562;8.856;2023-06-22T09:35:50;13.23;;;8.00;;
51020;SDS011;38907;45.562;8.856;2023-06-22T09:40:52;14.30;;;7.55;;
51020;SDS011;38907;45.562;8.856;2023-06-22T09:45:53;12.52;;;7.65;;
51020;SDS011;38907;45.562;8.856;2023-06-22T09:50:58;9.43;;;5.72;;
51020;SDS011;38907;45.562;8.856;2023-06-22T09:55:59;11.98;;;6.20;;
51020;SDS011;38907;45.562;8.856;2023-06-22T10:01:01;15.43;;;7.07;;
51020;SDS011;38907;45.562;8.856;2023-06-22T10:06:05;12.43;;;6.80;;
51020;SDS011;38907;45.562;8.856;2023-06-22T10:11:06;14.23;;;7.32;;
51020;SDS011;38907;45.562;8.856;2023-06-22T10:16:08;18.27;;;7.22;;
51020;SDS011;38907;45.562;8.856;2023-06-22T10:21:12;13.45;;;6.30;;
51020;SDS011;38907;45.562;8.856;2023-06-22T10:26:13;13.95;;;6.82;;
51020;SDS011;38907;45.562;8.856;2023-06-22T10:31:15;14.80;;;6.20;;
51020;SDS011;38907;45.562;8.856;2023-06-22T10:36:19;10.75;;;6.30;;
51020;SDS011;38907;45.562;8.856;2023-06-22T10:41:21;18.42;;;6.30;;
51020;SDS011;38907;45.562;8.856;2023-06-22T10:46:23;23.27;;;6.43;;
51020;SDS011;38907;45.562;8.856;2023-06-22T10:51:27;12.60;;;6.35;;
51020;SDS011;38907;45.562;8.856;2023-06-22T10:56:29;13.85;;;6.25;;
51020;SDS011;38907;45.562;8.856;2023-06-22T11:01:31;11.30;;;6.65;;
51020;SDS011;38907;45.562;8.856;2023-06-22T11:06:36;15.65;;;6.47;;
51020;SDS011;38907;45.562;8.856;2023-06-22T11:11:37;11.57;;;7.05;;
51020;SDS011;38907;45.562;8.856;2023-06-22T11:16:39;8.95;;;6.30;;
51020;SDS011;38907;45.562;8.856;2023-06-22T11:21:42;8.10;;;6.10;;
51020;SDS011;38907;45.562;8.856;2023-06-22T11:26:44;11.57;;;6.82;;
51020;SDS011;38907;45.562;8.856;2023-06-22T11:31:46;9.68;;;6.75;;
51020;SDS011;38907;45.562;8.856;2023-06-22T11:36:49;10.82;;;6.18;;
51020;SDS011;38907;45.562;8.856;2023-06-22T11:41:51;12.45;;;6.45;;
51020;SDS011;38907;45.562;8.856;2023-06-22T11:46:53;17.83;;;7.15;;
51020;SDS011;38907;45.562;8.856;2023-06-22T11:51:56;19.67;;;6.65;;
51020;SDS011;38907;45.562;8.856;2023-06-22T11:56:58;11.60;;;5.90;;
51020;SDS011;38907;45.562;8.856;2023-06-22T12:02:00;17.25;;;5.97;;
51020;SDS011;38907;45.562;8.856;2023-06-22T12:07:05;18.33;;;6.10;;
51020;SDS011;38907;45.562;8.856;2023-06-22T12:12:07;19.92;;;7.28;;
51020;SDS011;38907;45.562;8.856;2023-06-22T12:17:09;18.42;;;7.05;;
51020;SDS011;38907;45.562;8.856;2023-06-22T12:22:13;14.30;;;6.28;;
51020;SDS011;38907;45.562;8.856;2023-06-22T12:27:16;11.75;;;6.28;;
51020;SDS011;38907;45.562;8.856;2023-06-22T12:32:19;11.48;;;6.45;;
51020;SDS011;38907;45.562;8.856;2023-06-22T12:37:22;15.32;;;7.05;;
51020;SDS011;38907;45.562;8.856;2023-06-22T12:42:24;9.35;;;6.38;;
51020;SDS011;38907;45.562;8.856;2023-06-22T12:47:28;10.63;;;6.30;;
51020;SDS011;38907;45.562;8.856;2023-06-22T12:52:31;18.42;;;6.72;;
51020;SDS011;38907;45.562;8.856;2023-06-22T12:57:33;11.63;;;6.85;;
51020;SDS011;38907;45.562;8.856;2023-06-22T13:02:35;17.67;;;6.63;;
51020;SDS011;38907;45.562;8.856;2023-06-22T13:07:38;13.68;;;6.40;;
51020;SDS011;38907;45.562;8.856;2023-06-22T13:12:41;16.73;;;6.38;;
51020;SDS011;38907;45.562;8.856;2023-06-22T13:17:43;7.20;;;5.97;;
51020;SDS011;38907;45.562;8.856;2023-06-22T13:22:46;11.07;;;6.63;;
51020;SDS011;38907;45.562;8.856;2023-06-22T13:27:48;15.85;;;6.90;;
51020;SDS011;38907;45.562;8.856;2023-06-22T13:32:50;9.88;;;6.40;;
51020;SDS011;38907;45.562;8.856;2023-06-22T13:37:53;13.27;;;6.85;;
51020;SDS011;38907;45.562;8.856;2023-06-22T13:42:55;12.88;;;7.82;;
51020;SDS011;38907;45.562;8.856;2023-06-22T13:47:58;13.35;;;6.88;;
51020;SDS011;38907;45.562;8.856;2023-06-22T13:53:01;9.88;;;7.38;;
51020;SDS011;38907;45.562;8.856;2023-06-22T13:58:03;10.40;;;7.25;;
51020;SDS011;38907;45.562;8.856;2023-06-22T14:03:04;9.20;;;7.00;;
51020;SDS011;38907;45.562;8.856;2023-06-22T14:08:08;9.90;;;7.00;;
51020;SDS011;38907;45.562;8.856;2023-06-22T14:13:10;11.43;;;6.57;;
51020;SDS011;38907;45.562;8.856;2023-06-22T14:18:12;15.38;;;7.50;;
51020;SDS011;38907;45.562;8.856;2023-06-22T14:23:15;19.90;;;7.40;;
51020;SDS011;38907;45.562;8.856;2023-06-22T14:28:17;13.43;;;7.38;;
51020;SDS011;38907;45.562;8.856;2023-06-22T14:33:19;13.65;;;7.47;;
51020;SDS011;38907;45.562;8.856;2023-06-22T14:38:22;13.98;;;7.45;;
51020;SDS011;38907;45.562;8.856;2023-06-22T14:43:24;19.63;;;6.80;;
51020;SDS011;38907;45.562;8.856;2023-06-22T14:48:26;15.30;;;6.88;;
51020;SDS011;38907;45.562;8.856;2023-06-22T14:53:30;13.38;;;6.40;;
51020;SDS011;38907;45.562;8.856;2023-06-22T14:58:31;12.70;;;7.70;;
51020;SDS011;38907;45.562;8.856;2023-06-22T15:03:35;7.97;;;6.38;;
51020;SDS011;38907;45.562;8.856;2023-06-22T15:08:39;17.70;;;6.53;;
51020;SDS011;38907;45.562;8.856;2023-06-22T15:13:41;11.13;;;5.80;;
51020;SDS011;38907;45.562;8.856;2023-06-22T15:18:43;6.10;;;5.07;;
51020;SDS011;38907;45.562;8.856;2023-06-22T15:23:47;13.07;;;5.22;;
51020;SDS011;38907;45.562;8.856;2023-06-22T15:28:49;16.08;;;5.47;;
51020;SDS011;38907;45.562;8.856;2023-06-22T15:33:50;8.93;;;5.07;;
51020;SDS011;38907;45.562;8.856;2023-06-22T15:38:54;11.65;;;4.97;;
51020;SDS011;38907;45.562;8.856;2023-06-22T15:43:55;7.75;;;5.15;;
51020;SDS011;38907;45.562;8.856;2023-06-22T15:48:57;8.98;;;5.53;;
51020;SDS011;38907;45.562;8.856;2023-06-22T15:54:01;11.73;;;6.13;;
51020;SDS011;38907;45.562;8.856;2023-06-22T15:59:02;14.15;;;4.97;;
51020;SDS011;38907;45.562;8.856;2023-06-22T16:04:04;8.32;;;4.68;;
51020;SDS011;38907;45.562;8.856;2023-06-22T16:09:07;9.27;;;4.93;;
51020;SDS011;38907;45.562;8.856;2023-06-22T16:14:09;8.90;;;5.20;;
51020;SDS011;38907;45.562;8.856;2023-06-22T16:19:11;14.93;;;5.10;;
51020;SDS011;38907;45.562;8.856;2023-06-22T16:24:14;40.17;;;7.68;;
51020;SDS011;38907;45.562;8.856;2023-06-22T16:29:16;19.70;;;5.15;;
51020;SDS011;38907;45.562;8.856;2023-06-22T16:34:18;11.15;;;5.32;;
51020;SDS011;38907;45.562;8.856;2023-06-22T16:39:21;6.75;;;5.07;;
51020;SDS011;38907;45.562;8.856;2023-06-22T16:44:23;9.07;;;4.95;;
51020;SDS011;38907;45.562;8.856;2023-06-22T16:49:25;10.70;;;5.43;;
51020;SDS011;38907;45.562;8.856;2023-06-22T16:54:29;14.20;;;5.82;;
51020;SDS011;38907;45.562;8.856;2023-06-22T16:59:31;10.23;;;5.32;;
51020;SDS011;38907;45.562;8.856;2023-06-22T17:04:33;8.52;;;5.32;;
51020;SDS011;38907;45.562;8.856;2023-06-22T17:09:39;14.27;;;5.75;;
51020;SDS011;38907;45.562;8.856;2023-06-22T17:14:43;19.70;;;6.38;;
51020;SDS011;38907;45.562;8.856;2023-06-22T17:19:45;13.45;;;5.35;;
51020;SDS011;38907;45.562;8.856;2023-06-22T17:24:49;20.30;;;5.93;;
51020;SDS011;38907;45.562;8.856;2023-06-22T17:29:55;15.10;;;6.32;;
51020;SDS011;38907;45.562;8.856;2023-06-22T17:35:05;14.80;;;6.05;;
51020;SDS011;38907;45.562;8.856;2023-06-22T17:40:10;9.23;;;6.47;;
51020;SDS011;38907;45.562;8.856;2023-06-22T17:45:15;18.35;;;6.70;;
51020;SDS011;38907;45.562;8.856;2023-06-22T17:50:20;11.88;;;7.05;;
51020;SDS011;38907;45.562;8.856;2023-06-22T17:55:25;15.70;;;6.97;;
51020;SDS011;38907;45.562;8.856;2023-06-22T18:00:27;15.05;;;7.05;;
51020;SDS011;38907;45.562;8.856;2023-06-22T18:05:30;13.82;;;7.15;;
51020;SDS011;38907;45.562;8.856;2023-06-22T18:10:34;12.02;;;7.00;;
51020;SDS011;38907;45.562;8.856;2023-06-22T18:15:38;8.57;;;6.32;;
51020;SDS011;38907;45.562;8.856;2023-06-22T18:20:40;15.32;;;7.03;;
51020;SDS011;38907;45.562;8.856;2023-06-22T18:25:44;9.88;;;6.32;;
51020;SDS011;38907;45.562;8.856;2023-06-22T18:30:47;9.35;;;7.20;;
51020;SDS011;38907;45.562;8.856;2023-06-22T18:35:50;7.70;;;6.55;;
51020;SDS011;38907;45.562;8.856;2023-06-22T18:40:55;14.18;;;7.07;;
51020;SDS011;38907;45.562;8.856;2023-06-22T18:46:04;11.35;;;7.35;;
51020;SDS011;38907;45.562;8.856;2023-06-22T18:51:46;21.27;;;7.05;;
51020;SDS011;38907;45.562;8.856;2023-06-22T18:56:54;13.63;;;6.63;;
51020;SDS011;38907;45.562;8.856;2023-06-22T19:01:59;12.98;;;7.20;;
51020;SDS011;38907;45.562;8.856;2023-06-22T19:07:01;16.17;;;7.35;;
51020;SDS011;38907;45.562;8.856;2023-06-22T19:12:17;10.85;;;6.93;;
51020;SDS011;38907;45.562;8.856;2023-06-22T19:17:21;14.07;;;6.97;;
51020;SDS011;38907;45.562;8.856;2023-06-22T19:22:29;16.58;;;6.78;;
51020;SDS011;38907;45.562;8.856;2023-06-22T19:27:47;7.88;;;6.57;;
51020;SDS011;38907;45.562;8.856;2023-06-22T19:32:52;10.05;;;6.90;;
51020;SDS011;38907;45.562;8.856;2023-06-22T19:37:56;14.65;;;7.30;;
51020;SDS011;38907;45.562;8.856;2023-06-22T19:42:59;9.02;;;6.63;;
51020;SDS011;38907;45.562;8.856;2023-06-22T19:48:01;11.95;;;7.20;;
51020;SDS011;38907;45.562;8.856;2023-06-22T19:53:06;11.13;;;7.00;;
51020;SDS011;38907;45.562;8.856;2023-06-22T19:58:11;12.32;;;7.20;;
51020;SDS011;38907;45.562;8.856;2023-06-22T20:03:15;11.68;;;6.85;;
51020;SDS011;38907;45.562;8.856;2023-06-22T20:08:19;13.20;;;7.60;;
51020;SDS011;38907;45.562;8.856;2023-06-22T20:13:23;18.00;;;7.57;;
51020;SDS011;38907;45.562;8.856;2023-06-22T20:18:25;14.00;;;7.57;;
51020;SDS011;38907;45.562;8.856;2023-06-22T20:23:29;16.30;;;7.95;;
51020;SDS011;38907;45.562;8.856;2023-06-22T20:28:34;15.13;;;8.20;;
51020;SDS011;38907;45.562;8.856;2023-06-22T20:33:37;18.38;;;8.07;;
51020;SDS011;38907;45.562;8.856;2023-06-22T20:38:41;15.20;;;8.18;;
51020;SDS011;38907;45.562;8.856;2023-06-22T20:43:53;15.90;;;8.98;;
51020;SDS011;38907;45.562;8.856;2023-06-22T20:49:01;17.13;;;8.85;;
51020;SDS011;38907;45.562;8.856;2023-06-22T20:54:05;12.82;;;8.02;;
51020;SDS011;38907;45.562;8.856;2023-06-22T20:59:09;15.55;;;8.90;;
51020;SDS011;38907;45.562;8.856;2023-06-22T21:04:11;14.95;;;8.80;;
51020;SDS011;38907;45.562;8.856;2023-06-22T21:14:16;15.70;;;9.02;;
51020;SDS011;38907;45.562;8.856;2023-06-22T21:19:18;12.27;;;7.93;;
51020;SDS011;38907;45.562;8.856;2023-06-22T21:24:20;15.45;;;8.48;;
51020;SDS011;38907;45.562;8.856;2023-06-22T21:39:27;17.85;;;9.13;;
51020;SDS011;38907;45.562;8.856;2023-06-22T21:44:30;17.55;;;9.13;;
51020;SDS011;38907;45.562;8.856;2023-06-22T21:49:32;15.38;;;8.63;;
51020;SDS011;38907;45.562;8.856;2023-06-22T21:54:33;15.77;;;9.65;;
51020;SDS011;38907;45.562;8.856;2023-06-22T21:59:37;15.43;;;9.27;;
51020;SDS011;38907;45.562;8.856;2023-06-22T22:04:39;15.23;;;9.65;;
51020;SDS011;38907;45.562;8.856;2023-06-22T22:09:41;143.65;;;19.27;;
51020;SDS011;38907;45.562;8.856;2023-06-22T22:14:44;65.00;;;13.65;;
51020;SDS011;38907;45.562;8.856;2023-06-22T22:19:46;39.33;;;11.57;;
51020;SDS011;38907;45.562;8.856;2023-06-22T22:24:48;17.40;;;9.55;;
51020;SDS011;38907;45.562;8.856;2023-06-22T22:29:51;31.15;;;10.48;;
51020;SDS011;38907;45.562;8.856;2023-06-22T22:34:53;12.27;;;9.40;;
51020;SDS011;38907;45.562;8.856;2023-06-22T22:39:57;11.88;;;9.05;;
51020;SDS011;38907;45.562;8.856;2023-06-22T22:45:02;12.88;;;8.20;;
51020;SDS011;38907;45.562;8.856;2023-06-22T22:50:05;13.63;;;8.25;;
51020;SDS011;38907;45.562;8.856;2023-06-22T22:55:08;12.90;;;8.40;;
51020;SDS011;38907;45.562;8.856;2023-06-22T23:00:15;10.45;;;8.20;;
51020;SDS011;38907;45.562;8.856;2023-06-22T23:05:17;13.10;;;9.18;;
51020;SDS011;38907;45.562;8.856;2023-06-22T23:15:23;17.65;;;7.38;;
51020;SDS011;38907;45.562;8.856;2023-06-22T23:20:24;10.43;;;4.93;;
51020;SDS011;38907;45.562;8.856;2023-06-22T23:25:27;10.75;;;4.70;;
51020;SDS011;38907;45.562;8.856;2023-06-22T23:30:31;12.20;;;4.28;;
51020;SDS011;38907;45.562;8.856;2023-06-22T23:35:34;9.07;;;4.00;;
51020;SDS011;38907;45.562;8.856;2023-06-22T23:40:36;6.13;;;3.40;;
51020;SDS011;38907;45.562;8.856;2023-06-22T23:45:40;5.28;;;3.22;;
51020;SDS011;38907;45.562;8.856;2023-06-22T23:50:42;6.38;;;2.65;;
51020;SDS011;38907;45.562;8.856;2023-06-22T23:55:44;6.13;;;3.15;;
